Time;durP1;ratioP1;P1;durP2;ratioP2;P2;SDS_P1;SDS_P2;PMS_P1;PMS_P2;Temp;Humidity;BMP_temperature;BMP_pressure;BME280_temperature;BME280_humidity;BME280_pressure;Samples;Min_cycle;Max_cycle;Signal;HPM_P1;HPM_P2
2022/12/09 00:02:24;;;;;;;14.73;8.85;;;-0.30;4.70;;;;;;7392552;19;20010;-75
2022/12/09 00:04:54;;;;;;;15.50;9.27;;;-0.30;4.10;;;;;;7371626;19;20500;-74
2022/12/09 00:07:24;;;;;;;13.98;9.75;;;-0.40;4.10;;;;;;7365041;19;20007;-75
2022/12/09 00:09:57;;;;;;;15.68;9.45;;;-0.30;4.10;;;;;;7367669;19;20011;-75
2022/12/09 00:12:27;;;;;;;13.02;8.80;;;-0.40;4.40;;;;;;7372059;19;20010;-75
2022/12/09 00:14:57;;;;;;;14.82;9.73;;;-0.50;5.50;;;;;;7371442;19;20019;-75
2022/12/09 00:17:27;;;;;;;16.85;10.45;;;-0.50;5.50;;;;;;7388569;19;20006;-75
2022/12/09 00:19:57;;;;;;;17.45;11.15;;;-0.60;7.00;;;;;;7366997;19;20011;-75
2022/12/09 00:22:28;;;;;;;15.48;10.25;;;-0.60;8.20;;;;;;7371481;19;20022;-75
2022/12/09 00:25:01;;;;;;;16.50;9.82;;;-0.70;8.20;;;;;;7370919;19;20014;-75
2022/12/09 00:27:31;;;;;;;15.18;10.38;;;-0.70;9.00;;;;;;7363938;19;20366;-74
2022/12/09 00:30:01;;;;;;;19.90;10.90;;;-0.70;9.10;;;;;;7366596;19;20490;-75
2022/12/09 00:32:31;;;;;;;16.75;10.55;;;-0.80;9.70;;;;;;7393287;19;20018;-74
2022/12/09 00:35:03;;;;;;;18.83;11.15;;;-0.80;9.90;;;;;;7370234;19;20459;-74
2022/12/09 00:37:34;;;;;;;18.52;10.45;;;-0.80;10.20;;;;;;7365105;19;20010;-76
2022/12/09 00:40:08;;;;;;;19.35;10.40;;;-0.80;10.50;;;;;;7367153;19;20002;-76
2022/12/09 00:42:39;;;;;;;16.73;11.23;;;-0.80;10.70;;;;;;7371442;19;20003;-76
2022/12/09 00:45:09;;;;;;;15.25;9.35;;;-0.80;10.60;;;;;;7370964;19;20013;-76
2022/12/09 00:47:39;;;;;;;16.08;9.95;;;-0.80;9.80;;;;;;7388230;19;20024;-74
2022/12/09 00:50:10;;;;;;;15.32;9.60;;;-0.80;9.60;;;;;;7367459;19;20010;-74
2022/12/09 00:52:40;;;;;;;14.90;9.77;;;-0.80;9.50;;;;;;7371380;19;20085;-75
2022/12/09 00:55:13;;;;;;;16.92;10.68;;;-0.80;10.10;;;;;;7369279;19;20369;-76
2022/12/09 00:57:43;;;;;;;15.30;10.38;;;-0.80;9.90;;;;;;7365416;19;20680;-75
2022/12/09 01:00:14;;;;;;;15.27;10.65;;;-0.80;10.30;;;;;;7366985;19;20008;-74
2022/12/09 01:02:43;;;;;;;13.63;10.23;;;-0.80;10.70;;;;;;7392591;19;20021;-74
2022/12/09 01:05:14;;;;;;;16.70;10.73;;;-0.80;11.00;;;;;;7368627;19;20017;-75
2022/12/09 01:07:44;;;;;;;18.17;11.25;;;-0.90;11.10;;;;;;7363230;19;20373;-77
2022/12/09 01:10:17;;;;;;;17.95;11.15;;;-0.90;11.30;;;;;;7365639;19;20002;-74
2022/12/09 01:12:47;;;;;;;16.52;10.40;;;-1.00;11.50;;;;;;7368822;19;20007;-76
2022/12/09 01:15:17;;;;;;;16.48;9.93;;;-1.00;11.70;;;;;;7369088;19;20351;-75
2022/12/09 01:17:47;;;;;;;16.77;10.55;;;-1.00;12.20;;;;;;7363399;19;20034;-75
2022/12/09 01:20:17;;;;;;;15.40;10.02;;;-1.00;12.30;;;;;;7384487;19;20011;-75
2022/12/09 01:22:46;;;;;;;15.63;10.30;;;-1.00;12.30;;;;;;7370102;19;20764;-74
2022/12/09 01:25:19;;;;;;;16.70;9.90;;;-1.10;12.80;;;;;;7366980;19;20034;-75
2022/12/09 01:27:49;;;;;;;18.60;10.10;;;-1.10;14.00;;;;;;7363030;19;20501;-75
2022/12/09 01:30:19;;;;;;;15.05;9.93;;;-1.10;13.70;;;;;;7363615;19;20911;-75
2022/12/09 01:32:49;;;;;;;14.73;10.60;;;-1.10;14.20;;;;;;7368678;19;20028;-76
2022/12/09 01:35:19;;;;;;;13.80;10.15;;;-1.10;14.30;;;;;;7385523;19;20036;-75
2022/12/09 01:37:49;;;;;;;16.63;10.73;;;-1.10;15.20;;;;;;7362529;19;20078;-74
2022/12/09 01:40:22;;;;;;;16.67;10.45;;;-1.20;14.50;;;;;;7364017;19;20010;-75
2022/12/09 01:42:52;;;;;;;17.27;10.20;;;-1.20;15.40;;;;;;7370025;19;20022;-76
2022/12/09 01:45:42;;;;;;;16.88;10.65;;;-1.20;15.60;;;;;;7367166;19;20508;-75
2022/12/09 01:48:14;;;;;;;16.45;10.30;;;-1.20;15.60;;;;;;7365601;19;20462;-75
2022/12/09 01:50:48;;;;;;;15.57;11.07;;;-1.20;15.70;;;;;;7388375;19;20014;-75
2022/12/09 01:53:21;;;;;;;19.05;12.00;;;-1.20;15.60;;;;;;7369509;19;20013;-76
2022/12/09 01:55:56;;;;;;;19.65;11.93;;;-1.20;15.90;;;;;;7367295;19;20006;-76
2022/12/09 01:58:26;;;;;;;22.02;12.00;;;-1.20;16.10;;;;;;7363790;19;20010;-75
2022/12/09 02:00:57;;;;;;;23.45;12.77;;;-1.30;16.30;;;;;;7369138;19;20007;-76
2022/12/09 02:03:27;;;;;;;17.83;11.43;;;-1.40;16.50;;;;;;7367813;19;20015;-73
2022/12/09 02:05:58;;;;;;;18.70;11.57;;;-1.40;17.20;;;;;;7366560;19;20443;-76
2022/12/09 02:08:28;;;;;;;16.60;11.93;;;-1.40;17.40;;;;;;7384778;19;20018;-76
2022/12/09 02:11:09;;;;;;;20.42;13.07;;;-1.40;17.50;;;;;;7369160;19;20015;-76
2022/12/09 02:13:46;;;;;;;17.55;11.85;;;-1.50;17.80;;;;;;7367795;19;20006;-76
2022/12/09 02:16:19;;;;;;;17.58;12.80;;;-1.60;18.60;;;;;;7364203;19;20094;-76
2022/12/09 02:18:55;;;;;;;18.17;12.30;;;-1.60;19.80;;;;;;7363865;19;20006;-75
2022/12/09 02:21:33;;;;;;;19.85;13.25;;;-1.70;20.40;;;;;;7368315;19;20025;-75
2022/12/09 02:24:10;;;;;;;19.58;13.05;;;-1.60;21.60;;;;;;7364830;19;20612;-75
2022/12/09 02:26:46;;;;;;;20.55;12.93;;;-1.70;21.80;;;;;;7382643;19;20020;-75
2022/12/09 02:29:37;;;;;;;18.42;12.88;;;-1.70;22.10;;;;;;7363909;19;20463;-75
2022/12/09 02:32:36;;;;;;;20.60;13.70;;;-1.70;22.60;;;;;;7366514;19;20015;-75
2022/12/09 02:35:13;;;;;;;20.98;13.02;;;-1.60;24.00;;;;;;7366408;19;20179;-76
2022/12/09 02:37:51;;;;;;;21.55;13.15;;;-1.70;22.90;;;;;;7360855;19;20428;-76
2022/12/09 02:40:25;;;;;;;18.92;12.90;;;-1.80;22.60;;;;;;7362937;19;20002;-75
2022/12/09 02:42:58;;;;;;;19.63;13.77;;;-1.80;23.10;;;;;;7367777;19;20002;-77
2022/12/09 02:45:32;;;;;;;21.83;13.35;;;-1.80;24.20;;;;;;7364314;19;20010;-75
2022/12/09 02:48:05;;;;;;;21.58;13.18;;;-1.80;24.00;;;;;;7363182;19;20355;-76
2022/12/09 02:50:40;;;;;;;18.10;12.65;;;-1.80;24.40;;;;;;7386066;19;20018;-76
2022/12/09 02:53:12;;;;;;;21.38;13.90;;;-1.80;24.70;;;;;;7366027;19;20457;-76
2022/12/09 02:55:45;;;;;;;19.30;12.88;;;-1.60;25.00;;;;;;7363406;19;20006;-76
2022/12/09 02:58:16;;;;;;;21.15;13.35;;;-1.60;25.00;;;;;;7364099;19;20021;-75
2022/12/09 03:00:46;;;;;;;21.48;13.20;;;-1.60;24.60;;;;;;7364922;19;20493;-75
2022/12/09 03:03:18;;;;;;;20.33;13.20;;;-1.60;24.60;;;;;;7366937;19;20464;-75
2022/12/09 03:06:02;;;;;;;19.35;13.40;;;-1.50;24.60;;;;;;7363931;19;20014;-75
2022/12/09 03:08:42;;;;;;;18.10;12.50;;;-1.50;24.00;;;;;;7381269;19;20035;-75
2022/12/09 03:11:15;;;;;;;23.10;14.10;;;-1.60;24.00;;;;;;7366318;19;20010;-76
2022/12/09 03:13:55;;;;;;;22.88;13.88;;;-1.60;23.90;;;;;;7365108;19;20014;-75
2022/12/09 03:16:32;;;;;;;19.75;13.57;;;-1.70;23.80;;;;;;7358236;19;20018;-75
2022/12/09 03:19:08;;;;;;;20.33;13.10;;;-1.70;23.90;;;;;;7362429;19;20014;-75
2022/12/09 03:21:45;;;;;;;19.73;13.05;;;-1.80;23.80;;;;;;7366296;19;20007;-75
2022/12/09 03:24:20;;;;;;;20.77;12.50;;;-1.70;24.00;;;;;;7365865;19;20024;-75
2022/12/09 03:26:51;;;;;;;20.35;13.85;;;-1.80;23.70;;;;;;7359536;19;20067;-75
2022/12/09 03:29:25;;;;;;;18.70;12.77;;;-1.80;23.40;;;;;;7383750;19;20041;-76
2022/12/09 03:31:58;;;;;;;19.50;12.63;;;-1.70;23.60;;;;;;7364244;19;20035;-76
2022/12/09 03:34:35;;;;;;;21.42;13.13;;;-1.80;23.10;;;;;;7365502;19;20003;-75
2022/12/09 03:37:09;;;;;;;18.58;12.60;;;-1.80;23.00;;;;;;7364597;19;20062;-75
2022/12/09 03:39:41;;;;;;;17.88;11.60;;;-1.70;22.80;;;;;;7369440;19;20014;-75
2022/12/09 03:42:16;;;;;;;19.48;12.40;;;-1.80;22.10;;;;;;7373788;19;20015;-74
2022/12/09 03:44:51;;;;;;;21.77;13.05;;;-1.80;22.10;;;;;;7371440;19;20107;-76
2022/12/09 03:47:21;;;;;;;19.00;12.60;;;-1.80;22.10;;;;;;7387939;19;20114;-76
2022/12/09 03:49:52;;;;;;;17.45;11.77;;;-1.80;22.10;;;;;;7366697;19;20025;-76
2022/12/09 03:52:28;;;;;;;16.65;12.05;;;-1.80;22.10;;;;;;7370143;19;20549;-76
2022/12/09 03:55:01;;;;;;;19.33;11.70;;;-1.80;22.10;;;;;;7374339;19;20007;-75
2022/12/09 03:57:31;;;;;;;19.30;12.45;;;-1.90;22.00;;;;;;7366650;19;20006;-76
2022/12/09 04:00:04;;;;;;;21.33;13.45;;;-1.90;22.00;;;;;;7366804;19;20015;-76
2022/12/09 04:02:35;;;;;;;20.58;13.00;;;-2.00;22.60;;;;;;7394417;19;20018;-76
2022/12/09 04:05:06;;;;;;;20.30;12.43;;;-2.00;22.90;;;;;;7371630;19;20096;-76
2022/12/09 04:07:39;;;;;;;20.48;12.57;;;-2.10;23.50;;;;;;7365422;19;20081;-76
2022/12/09 04:10:10;;;;;;;18.60;13.25;;;-2.10;23.90;;;;;;7368957;19;20089;-75
2022/12/09 04:12:41;;;;;;;18.30;13.23;;;-2.10;24.10;;;;;;7371053;19;20022;-76
2022/12/09 04:15:11;;;;;;;19.55;13.50;;;-2.10;24.50;;;;;;7370178;19;20006;-75
2022/12/09 04:17:41;;;;;;;21.65;13.07;;;-2.10;24.70;;;;;;7387717;19;20017;-75
2022/12/09 04:20:13;;;;;;;20.35;13.20;;;-2.20;24.70;;;;;;7366736;19;20007;-76
2022/12/09 04:22:46;;;;;;;19.58;13.35;;;-2.10;25.20;;;;;;7371602;19;20019;-75
2022/12/09 04:25:16;;;;;;;21.00;13.25;;;-2.10;25.20;;;;;;7371119;19;20011;-76
2022/12/09 04:27:46;;;;;;;20.13;12.65;;;-2.10;25.20;;;;;;7365697;19;20090;-76
2022/12/09 04:30:16;;;;;;;20.13;13.77;;;-2.10;25.10;;;;;;7367946;19;20010;-76
2022/12/09 04:32:46;;;;;;;21.38;13.07;;;-2.10;25.20;;;;;;7371766;19;20017;-75
2022/12/09 04:35:16;;;;;;;21.48;13.13;;;-2.10;25.20;;;;;;7392738;19;20018;-75
2022/12/09 04:37:49;;;;;;;23.02;12.88;;;-2.00;25.30;;;;;;7367461;19;20375;-77
2022/12/09 04:40:19;;;;;;;20.02;13.45;;;-2.10;25.20;;;;;;7368012;19;20010;-75
2022/12/09 04:42:53;;;;;;;21.77;14.13;;;-2.10;25.20;;;;;;7371335;19;20026;-75
2022/12/09 04:45:23;;;;;;;21.40;13.13;;;-2.00;25.50;;;;;;7370929;19;20525;-75
2022/12/09 04:47:53;;;;;;;24.85;14.20;;;-2.00;25.40;;;;;;7363863;19;20018;-76
2022/12/09 04:50:23;;;;;;;22.10;14.35;;;-2.10;24.20;;;;;;7387242;19;20019;-76
2022/12/09 04:52:55;;;;;;;21.38;13.95;;;-2.20;24.60;;;;;;7368857;19;20008;-75
2022/12/09 04:55:25;;;;;;;23.65;14.32;;;-2.20;25.10;;;;;;7370366;19;20070;-76
2022/12/09 04:57:55;;;;;;;23.20;15.35;;;-2.20;25.60;;;;;;7365563;19;20378;-75
2022/12/09 05:00:25;;;;;;;21.65;13.98;;;-2.20;25.80;;;;;;7365734;19;20018;-75
2022/12/09 05:02:55;;;;;;;22.23;13.77;;;-2.20;26.10;;;;;;7371639;19;20010;-75
2022/12/09 05:05:25;;;;;;;22.13;14.77;;;-2.20;25.80;;;;;;7391556;19;20003;-75
2022/12/09 05:07:58;;;;;;;20.98;13.95;;;-2.20;26.10;;;;;;7363895;19;20027;-75
2022/12/09 05:10:29;;;;;;;25.45;14.30;;;-2.20;26.10;;;;;;7366454;19;20011;-76
2022/12/09 05:12:59;;;;;;;22.58;13.65;;;-2.20;26.10;;;;;;7368339;19;20794;-75
2022/12/09 05:15:29;;;;;;;20.30;13.93;;;-2.20;25.90;;;;;;7370417;19;20201;-75
2022/12/09 05:18:01;;;;;;;24.63;14.23;;;-2.30;26.70;;;;;;7365179;19;20015;-75
2022/12/09 05:20:31;;;;;;;20.83;13.65;;;-2.20;26.90;;;;;;7388472;19;20007;-76
2022/12/09 05:23:04;;;;;;;21.73;15.07;;;-2.20;27.10;;;;;;7369955;19;20072;-75
2022/12/09 05:25:38;;;;;;;21.52;12.85;;;-2.20;26.50;;;;;;7370252;19;20054;-75
2022/12/09 05:28:08;;;;;;;22.10;14.43;;;-2.20;26.60;;;;;;7363293;19;20002;-75
2022/12/09 05:30:39;;;;;;;24.15;14.23;;;-2.10;26.70;;;;;;7367055;19;20504;-75
2022/12/09 05:33:09;;;;;;;21.63;13.65;;;-2.10;26.40;;;;;;7368205;19;20006;-76
2022/12/09 05:35:39;;;;;;;19.35;13.35;;;-2.00;26.60;;;;;;7391375;19;20335;-76
2022/12/09 05:38:24;;;;;;;20.27;13.43;;;-2.00;26.30;;;;;;7362176;19;20002;-75
2022/12/09 05:40:54;;;;;;;22.60;14.77;;;-1.90;26.70;;;;;;7369253;19;20010;-76
2022/12/09 05:43:24;;;;;;;23.15;13.50;;;-1.80;26.10;;;;;;7367910;19;20525;-75
2022/12/09 05:45:54;;;;;;;19.58;13.13;;;-1.60;25.60;;;;;;7368691;19;20046;-76
2022/12/09 05:48:25;;;;;;;21.00;13.57;;;-1.60;24.90;;;;;;7361259;19;20110;-76
2022/12/09 05:50:59;;;;;;;20.83;13.00;;;-1.60;24.10;;;;;;7368221;19;20489;-75
2022/12/09 05:53:33;;;;;;;19.65;12.85;;;-1.60;23.60;;;;;;7388909;19;20109;-76
2022/12/09 05:56:03;;;;;;;24.75;13.68;;;-1.50;22.50;;;;;;7368564;19;20525;-76
2022/12/09 05:58:33;;;;;;;21.35;13.30;;;-1.50;22.30;;;;;;7357746;19;20392;-75
2022/12/09 06:01:08;;;;;;;20.60;12.40;;;-1.50;21.60;;;;;;7367972;19;20010;-76
2022/12/09 06:03:39;;;;;;;20.48;12.63;;;-1.50;21.00;;;;;;7367705;19;20014;-76
2022/12/09 06:06:11;;;;;;;22.35;13.55;;;-1.50;21.00;;;;;;7366530;19;20454;-76
2022/12/09 06:08:45;;;;;;;18.08;11.85;;;-1.50;20.70;;;;;;7381124;19;20028;-76
2022/12/09 06:11:17;;;;;;;21.92;12.95;;;-1.40;20.70;;;;;;7368577;19;20078;-75
2022/12/09 06:13:49;;;;;;;23.80;13.55;;;-1.40;20.00;;;;;;7365551;19;20024;-75
2022/12/09 06:16:22;;;;;;;21.55;12.82;;;-1.40;19.40;;;;;;7368463;19;20013;-76
2022/12/09 06:18:53;;;;;;;22.25;13.25;;;-1.30;19.50;;;;;;7358735;19;20010;-78
2022/12/09 06:21:24;;;;;;;23.02;13.05;;;-1.30;19.00;;;;;;7366608;19;20460;-75
2022/12/09 06:23:57;;;;;;;23.10;13.05;;;-1.20;18.30;;;;;;7366133;19;20541;-76
2022/12/09 06:26:29;;;;;;;21.17;12.88;;;-1.20;17.70;;;;;;7389589;19;20027;-76
2022/12/09 06:29:00;;;;;;;20.45;13.77;;;-1.20;17.10;;;;;;7356645;19;20022;-73
2022/12/09 06:31:31;;;;;;;21.73;13.65;;;-1.20;16.50;;;;;;7366791;19;20009;-75
2022/12/09 06:34:01;;;;;;;21.88;14.23;;;-1.20;16.40;;;;;;7364486;19;20013;-75
2022/12/09 06:36:33;;;;;;;25.35;14.88;;;-1.30;16.60;;;;;;7366396;19;20010;-77
2022/12/09 06:39:06;;;;;;;23.23;14.25;;;-1.20;16.50;;;;;;7357741;19;20022;-76
2022/12/09 06:41:41;;;;;;;21.75;13.35;;;-1.30;16.40;;;;;;7388683;19;20042;-76
2022/12/09 06:44:13;;;;;;;25.42;13.98;;;-1.30;16.80;;;;;;7365713;19;20014;-74
2022/12/09 06:46:52;;;;;;;23.42;12.85;;;-1.30;17.50;;;;;;7366383;19;20521;-75
2022/12/09 06:49:22;;;;;;;23.25;13.18;;;-1.40;17.10;;;;;;7358669;19;20007;-77
2022/12/09 06:51:52;;;;;;;21.20;13.25;;;-1.30;18.30;;;;;;7367667;19;20086;-76
2022/12/09 06:54:25;;;;;;;22.52;13.60;;;-1.30;18.70;;;;;;7365263;19;20009;-76
2022/12/09 06:56:55;;;;;;;22.10;14.32;;;-1.40;18.10;;;;;;7364935;19;20014;-75
2022/12/09 06:59:25;;;;;;;19.83;12.77;;;-1.40;18.30;;;;;;7381430;19;20347;-76
2022/12/09 07:01:55;;;;;;;24.15;14.57;;;-1.30;18.70;;;;;;7364775;19;20030;-71
2022/12/09 07:04:25;;;;;;;22.63;13.57;;;-1.20;18.60;;;;;;7365751;19;20825;-76
2022/12/09 07:06:57;;;;;;;26.67;14.13;;;-1.20;17.80;;;;;;7366847;19;20019;-75
2022/12/09 07:09:30;;;;;;;22.30;13.60;;;-1.30;17.50;;;;;;7359131;19;20093;-76
2022/12/09 07:12:00;;;;;;;21.27;13.60;;;-1.30;18.50;;;;;;7364547;19;20031;-76
2022/12/09 07:14:30;;;;;;;24.17;15.43;;;-1.20;17.80;;;;;;7386269;19;20010;-75
2022/12/09 07:17:01;;;;;;;21.17;13.23;;;-1.20;17.50;;;;;;7366299;19;20356;-75
2022/12/09 07:19:33;;;;;;;21.85;12.02;;;-1.20;17.50;;;;;;7358013;19;20015;-76
2022/12/09 07:22:03;;;;;;;19.88;12.07;;;-1.20;17.20;;;;;;7365767;19;20031;-76
2022/12/09 07:24:35;;;;;;;19.80;12.18;;;-1.20;17.10;;;;;;7364350;19;20010;-76
2022/12/09 07:27:06;;;;;;;27.05;16.88;;;-1.20;17.50;;;;;;7365949;19;20016;-76
2022/12/09 07:29:41;;;;;;;31.95;17.98;;;-1.30;16.90;;;;;;7381807;19;20010;-77
2022/12/09 07:32:12;;;;;;;35.72;19.42;;;-1.40;17.20;;;;;;7365889;19;20099;-76
2022/12/09 07:34:42;;;;;;;32.53;18.20;;;-1.50;18.20;;;;;;7361608;19;20011;-77
2022/12/09 07:37:13;;;;;;;28.83;17.13;;;-1.50;19.00;;;;;;7362707;19;20007;-75
2022/12/09 07:39:45;;;;;;;29.88;17.05;;;-1.40;19.00;;;;;;7360811;19;20049;-77
2022/12/09 07:42:16;;;;;;;25.08;14.98;;;-1.40;18.90;;;;;;7364625;19;20011;-76
2022/12/09 07:44:46;;;;;;;23.52;15.18;;;-1.40;19.20;;;;;;7368703;19;20090;-76
2022/12/09 07:47:15;;;;;;;24.60;15.05;;;-1.40;18.10;;;;;;7382733;19;20011;-76
2022/12/09 07:49:46;;;;;;;28.30;16.20;;;-1.40;18.40;;;;;;7359900;19;20010;-77
2022/12/09 07:52:16;;;;;;;27.25;15.60;;;-1.50;18.20;;;;;;7365174;19;20006;-76
2022/12/09 07:54:49;;;;;;;26.60;14.13;;;-1.40;18.30;;;;;;7361864;19;20009;-77
2022/12/09 07:57:19;;;;;;;22.23;14.43;;;-1.30;19.00;;;;;;7359188;19;20003;-77
2022/12/09 07:59:49;;;;;;;23.63;13.48;;;-1.30;18.20;;;;;;7358938;19;20025;-76
2022/12/09 08:02:19;;;;;;;29.00;15.57;;;-1.40;16.90;;;;;;7385655;19;20015;-77
2022/12/09 08:04:49;;;;;;;24.35;16.27;;;-1.30;18.40;;;;;;7362692;19;20036;-76
2022/12/09 08:07:20;;;;;;;26.75;15.73;;;-1.20;17.80;;;;;;7360052;19;20097;-77
2022/12/09 08:09:55;;;;;;;27.55;16.02;;;-1.20;17.20;;;;;;7359681;19;20006;-77
2022/12/09 08:12:25;;;;;;;30.98;15.80;;;-1.10;16.60;;;;;;7364711;19;20498;-78
2022/12/09 08:14:55;;;;;;;25.98;13.77;;;-1.10;15.70;;;;;;7362400;19;20003;-77
2022/12/09 08:17:27;;;;;;;26.55;15.35;;;-1.00;15.80;;;;;;7381888;19;20257;-76
2022/12/09 08:19:58;;;;;;;25.88;15.02;;;-1.00;15.80;;;;;;7359244;19;20524;-77
2022/12/09 08:22:28;;;;;;;22.60;13.43;;;-0.90;15.80;;;;;;7366834;19;20509;-76
2022/12/09 08:25:01;;;;;;;21.90;13.43;;;-0.80;15.90;;;;;;7370610;19;20019;-78
2022/12/09 08:27:31;;;;;;;24.90;12.15;;;-0.80;15.10;;;;;;7366046;19;20010;-77
2022/12/09 08:30:01;;;;;;;23.65;13.13;;;-0.80;15.00;;;;;;7367256;19;20038;-77
2022/12/09 08:32:32;;;;;;;22.70;12.68;;;-0.80;14.20;;;;;;7393541;19;20399;-77
2022/12/09 08:35:02;;;;;;;21.80;12.95;;;-0.80;13.90;;;;;;7367674;19;20011;-77
2022/12/09 08:37:33;;;;;;;20.17;12.48;;;-0.70;13.40;;;;;;7366317;19;20025;-77
2022/12/09 08:40:06;;;;;;;21.52;12.70;;;-0.80;11.40;;;;;;7367628;19;20007;-77
2022/12/09 08:42:37;;;;;;;;;;;-0.50;13.80;;;;;;7370132;19;20031;-77
2022/12/09 08:45:09;;;;;;;24.27;11.55;;;-0.50;12.70;;;;;;7368962;19;19926;-78
2022/12/09 08:47:39;;;;;;;17.58;11.27;;;-0.60;11.50;;;;;;7386983;19;20021;-77
2022/12/09 08:50:10;;;;;;;23.17;14.27;;;-0.60;12.50;;;;;;7364920;19;20010;-78
2022/12/09 08:52:41;;;;;;;22.40;12.30;;;-0.40;12.70;;;;;;7370151;19;20363;-77
2022/12/09 08:55:14;;;;;;;21.42;12.35;;;-0.40;12.90;;;;;;7367905;19;20072;-76
2022/12/09 08:57:44;;;;;;;21.10;12.40;;;-0.40;11.90;;;;;;7364641;19;20017;-76
2022/12/09 09:00:15;;;;;;;22.00;12.30;;;-0.40;10.90;;;;;;7366006;19;21004;-77
2022/12/09 09:02:46;;;;;;;20.17;12.75;;;-0.50;12.60;;;;;;7375137;19;20010;-76
2022/12/09 09:05:16;;;;;;;19.90;13.23;;;-0.40;13.10;;;;;;7391365;19;20090;-76
2022/12/09 09:07:47;;;;;;;20.40;13.30;;;-0.40;12.60;;;;;;7364160;19;20081;-77
2022/12/09 09:10:21;;;;;;;20.05;13.07;;;-0.50;12.60;;;;;;7365368;19;20007;-77
2022/12/09 09:12:51;;;;;;;21.73;13.53;;;-0.60;12.80;;;;;;7370405;19;20132;-77
2022/12/09 09:15:22;;;;;;;20.48;13.07;;;-0.50;14.00;;;;;;7366456;19;20010;-77
2022/12/09 09:17:54;;;;;;;23.05;13.23;;;-0.60;14.00;;;;;;7361406;19;20019;-76
2022/12/09 09:20:24;;;;;;;21.90;13.48;;;-0.60;14.50;;;;;;7384921;19;20023;-77
2022/12/09 09:22:55;;;;;;;25.58;15.13;;;-0.60;13.70;;;;;;7368890;19;20007;-77
2022/12/09 09:25:35;;;;;;;25.02;14.48;;;-0.50;14.10;;;;;;7365714;19;20010;-76
2022/12/09 09:28:05;;;;;;;23.40;13.60;;;-0.50;14.90;;;;;;7362351;19;20070;-77
2022/12/09 09:30:35;;;;;;;20.55;13.43;;;-0.50;14.20;;;;;;7364300;19;20011;-77
2022/12/09 09:33:12;;;;;;;23.17;14.57;;;-0.60;15.00;;;;;;7366937;19;20010;-77
2022/12/09 09:35:43;;;;;;;21.80;14.02;;;-0.50;16.50;;;;;;7387330;19;20011;-76
2022/12/09 09:38:13;;;;;;;22.40;13.95;;;-0.50;16.10;;;;;;7361514;19;20027;-76
2022/12/09 09:40:46;;;;;;;24.13;12.77;;;-0.40;16.20;;;;;;7365044;19;20018;-77
2022/12/09 09:43:19;;;;;;;22.60;13.40;;;-0.50;16.10;;;;;;7367138;19;20074;-77
2022/12/09 09:45:49;;;;;;;22.70;13.93;;;-0.40;16.80;;;;;;7367016;19;20011;-76
2022/12/09 09:48:23;;;;;;;25.33;13.68;;;-0.40;16.60;;;;;;7361186;19;20481;-76
2022/12/09 09:50:59;;;;;;;25.35;14.35;;;-0.40;16.20;;;;;;7364933;19;20013;-77
2022/12/09 09:53:32;;;;;;;23.55;13.73;;;-0.50;17.00;;;;;;7388675;19;20016;-77
2022/12/09 09:56:09;;;;;;;23.35;14.63;;;-0.40;17.10;;;;;;7366983;19;20007;-76
2022/12/09 09:58:44;;;;;;;20.13;13.48;;;-0.30;17.20;;;;;;7358928;19;20018;-76
2022/12/09 10:01:17;;;;;;;23.27;15.10;;;-0.30;16.20;;;;;;7368862;19;20014;-77
2022/12/09 10:03:55;;;;;;;22.83;13.38;;;-0.20;16.50;;;;;;7366971;19;20082;-77
2022/12/09 10:06:37;;;;;;;32.63;22.25;;;-0.20;15.70;;;;;;7368499;19;20488;-77
2022/12/09 10:09:18;;;;;;;24.83;15.70;;;-0.10;16.40;;;;;;7358867;19;20019;-77
2022/12/09 10:11:59;;;;;;;25.45;15.52;;;0.00;13.90;;;;;;7369303;19;20031;-76
2022/12/09 10:14:49;;;;;;;27.40;16.00;;;0.00;13.20;;;;;;7387682;19;20369;-76
2022/12/09 10:17:28;;;;;;;24.55;15.38;;;0.10;12.20;;;;;;7365094;19;20014;-77
2022/12/09 10:20:04;;;;;;;23.48;14.15;;;0.20;14.30;;;;;;7362190;19;20043;-77
2022/12/09 10:22:44;;;;;;;21.10;12.85;;;0.20;12.10;;;;;;7366977;19;20010;-77
2022/12/09 10:25:21;;;;;;;23.65;12.65;;;0.30;11.70;;;;;;7365724;19;20009;-77
2022/12/09 10:28:10;;;;;;;18.55;12.27;;;0.30;9.60;;;;;;7362823;19;20017;-74
2022/12/09 10:30:40;;;;;;;18.83;12.27;;;0.50;9.70;;;;;;7363423;19;20025;-75
2022/12/09 10:33:14;;;;;;;23.27;13.30;;;0.50;4.80;;;;;;7365596;19;20513;-76
2022/12/09 10:35:45;;;;;;;20.27;13.40;;;0.60;5.40;;;;;;7381199;19;20011;-76
2022/12/09 10:38:18;;;;;;;25.83;12.63;;;0.80;6.30;;;;;;7382943;19;20033;-76
2022/12/09 10:40:58;;;;;;;22.05;12.90;;;1.00;3.90;;;;;;7361296;19;20018;-76
2022/12/09 10:43:34;;;;;;;22.23;12.98;;;0.70;1.00;;;;;;7364647;19;20034;-76
2022/12/09 10:46:08;;;;;;;22.45;13.00;;;0.90;3.30;;;;;;7361897;19;20089;-75
2022/12/09 10:49:00;;;;;;;23.10;13.73;;;1.00;3.30;;;;;;7355879;19;20473;-75
2022/12/09 10:51:33;;;;;;;25.55;14.68;;;1.10;3.30;;;;;;7365698;19;20053;-76
2022/12/09 10:54:31;;;;;;;23.50;13.07;;;1.00;1.00;;;;;;7362567;19;20031;-76
2022/12/09 10:57:09;;;;;;;23.27;13.32;;;1.00;1.90;;;;;;7364027;19;20018;-76
2022/12/09 10:59:43;;;;;;;21.48;12.88;;;1.20;2.50;;;;;;7378816;19;20022;-76
2022/12/09 11:02:22;;;;;;;22.33;13.10;;;1.20;1.30;;;;;;7363928;19;20007;-75
2022/12/09 11:04:52;;;;;;;23.88;13.70;;;1.20;1.00;;;;;;7363489;19;20011;-76
2022/12/09 11:07:25;;;;;;;20.98;12.27;;;1.10;1.60;;;;;;7362407;19;20014;-75
2022/12/09 11:10:07;;;;;;;21.98;13.55;;;1.10;1.70;;;;;;7358048;19;20014;-76
2022/12/09 11:12:39;;;;;;;22.80;13.48;;;1.20;1.10;;;;;;7364108;19;20517;-74
2022/12/09 11:15:31;;;;;;;26.65;13.15;;;1.10;2.20;;;;;;7363100;19;20510;-76
2022/12/09 11:18:05;;;;;;;20.85;13.35;;;1.10;1.80;;;;;;7358561;19;20014;-75
2022/12/09 11:20:37;;;;;;;23.48;13.32;;;1.20;2.90;;;;;;7381642;19;20015;-76
2022/12/09 11:23:17;;;;;;;24.60;13.65;;;1.30;2.90;;;;;;7362711;19;20024;-75
2022/12/09 11:25:56;;;;;;;21.98;13.32;;;1.40;2.90;;;;;;7362951;19;20133;-75
2022/12/09 11:28:29;;;;;;;21.38;13.88;;;1.20;1.60;;;;;;7356358;19;20014;-76
2022/12/09 11:31:05;;;;;;;23.33;13.57;;;1.40;3.00;;;;;;7363084;19;20063;-76
2022/12/09 11:33:58;;;;;;;23.90;14.40;;;1.30;2.40;;;;;;7362293;19;20006;-75
2022/12/09 11:36:33;;;;;;;24.47;14.47;;;1.20;3.60;;;;;;7363217;19;20020;-75
2022/12/09 11:39:18;;;;;;;24.45;15.15;;;1.30;3.80;;;;;;7352004;19;20211;-75
2022/12/09 11:44:37;;;;;;;22.80;13.95;;;1.40;3.00;;;;;;7382834;19;20035;-75
2022/12/09 11:47:13;;;;;;;27.02;15.90;;;1.30;4.00;;;;;;7362087;19;20011;-75
2022/12/09 11:49:50;;;;;;;27.83;15.60;;;1.40;5.20;;;;;;7356293;19;20015;-76
2022/12/09 11:52:29;;;;;;;24.83;14.77;;;1.40;4.70;;;;;;7364075;19;20399;-76
2022/12/09 11:55:14;;;;;;;25.33;14.60;;;1.30;5.40;;;;;;7360549;19;20015;-75
2022/12/09 11:57:52;;;;;;;25.52;14.88;;;1.40;6.20;;;;;;7362395;19;20010;-76
2022/12/09 12:00:24;;;;;;;26.58;15.32;;;1.40;5.60;;;;;;7364616;19;20006;-75
2022/12/09 12:03:13;;;;;;;25.80;16.10;;;1.40;5.40;;;;;;7370217;19;20358;-75
2022/12/09 12:05:46;;;;;;;40.03;16.50;;;1.40;5.30;;;;;;7391917;19;20022;-76
2022/12/09 12:08:23;;;;;;;29.23;15.75;;;1.50;5.00;;;;;;7365646;19;20015;-75
2022/12/09 12:10:57;;;;;;;23.05;15.18;;;1.60;5.30;;;;;;7369314;19;20018;-75
2022/12/09 12:13:33;;;;;;;24.73;15.23;;;1.50;5.20;;;;;;7368581;19;20018;-76
2022/12/09 12:16:10;;;;;;;25.13;15.15;;;1.50;4.90;;;;;;7368947;19;20110;-76
2022/12/09 12:18:47;;;;;;;35.33;14.55;;;1.60;6.10;;;;;;7360837;19;20013;-76
2022/12/09 12:21:45;;;;;;;29.38;15.85;;;1.70;5.20;;;;;;7368419;19;20482;-75
2022/12/09 12:24:53;;;;;;;27.90;15.52;;;1.60;4.00;;;;;;7367641;19;20510;-76
2022/12/09 12:27:35;;;;;;;23.38;14.07;;;1.60;5.00;;;;;;7366053;19;20022;-76
2022/12/09 12:30:07;;;;;;;25.48;15.05;;;1.50;6.30;;;;;;7362748;19;20169;-76
2022/12/09 12:32:54;;;;;;;28.40;15.35;;;1.60;6.80;;;;;;7390971;19;20022;-75
2022/12/09 12:36:02;;;;;;;24.52;14.35;;;1.70;6.50;;;;;;7266306;19;2004400;-76
2022/12/09 12:39:04;;;;;;;25.70;15.73;;;1.60;6.30;;;;;;7374780;19;20018;-76
2022/12/09 12:41:42;;;;;;;29.08;16.35;;;1.70;6.90;;;;;;7365918;19;20031;-76
2022/12/09 12:47:16;;;;;;;26.05;15.57;;;1.70;6.60;;;;;;7366585;19;20103;-74
2022/12/09 12:50:04;;;;;;;25.35;15.00;;;1.60;6.90;;;;;;7360658;19;20398;-76
2022/12/09 12:52:44;;;;;;;29.50;15.77;;;1.70;6.90;;;;;;7367571;19;20014;-76
2022/12/09 12:55:47;;;;;;;28.17;15.55;;;1.70;8.00;;;;;;7366022;19;20783;-74
2022/12/09 12:58:37;;;;;;;27.33;15.68;;;1.60;7.90;;;;;;7359148;19;20036;-75
2022/12/09 13:01:16;;;;;;;25.83;15.95;;;1.60;8.80;;;;;;7368210;19;20603;-74
2022/12/09 13:03:57;;;;;;;26.67;15.95;;;1.60;8.60;;;;;;7368522;19;20477;-75
2022/12/09 13:06:36;;;;;;;28.27;16.30;;;1.60;8.50;;;;;;7366881;19;20040;-77
2022/12/09 13:09:14;;;;;;;28.52;16.13;;;1.60;8.50;;;;;;7357054;19;20014;-76
2022/12/09 13:11:56;;;;;;;29.60;18.10;;;1.60;8.70;;;;;;7390288;19;20006;-75
2022/12/09 13:14:33;;;;;;;27.10;16.90;;;1.60;8.90;;;;;;7364449;19;20464;-76